createdAt,value
2022-09-15T00:01:43.387Z,20.36
2022-09-15T00:04:11.301Z,20.29
2022-09-15T00:06:39.073Z,20.38
2022-09-15T00:09:07.355Z,20.43
2022-09-15T00:11:37.683Z,20.26
2022-09-15T00:14:08.624Z,20.17
2022-09-15T00:16:37.121Z,20.22
2022-09-15T00:19:04.969Z,20.22
2022-09-15T00:21:35.173Z,20.50
2022-09-15T00:24:03.127Z,20.55
2022-09-15T00:26:31.947Z,20.29
2022-09-15T00:29:00.783Z,20.03
2022-09-15T00:31:30.836Z,19.99
2022-09-15T00:34:03.343Z,20.21
2022-09-15T00:36:31.646Z,20.37
2022-09-15T00:38:59.624Z,20.34
2022-09-15T00:41:27.941Z,20.26
2022-09-15T00:44:15.899Z,20.22
2022-09-15T00:46:54.829Z,20.24
2022-09-15T00:49:39.077Z,20.04
2022-09-15T00:52:31.855Z,20.17
2022-09-15T00:55:24.152Z,20.07
2022-09-15T00:57:59.211Z,19.94
2022-09-15T01:00:28.963Z,19.89
2022-09-15T01:02:57.539Z,19.82
2022-09-15T01:05:44.899Z,20.04
2022-09-15T01:08:26.913Z,20.06
2022-09-15T01:10:55.336Z,20.03
2022-09-15T01:13:23.240Z,20.03
2022-09-15T01:16:26.660Z,20.16
2022-09-15T01:19:32.357Z,20.09
2022-09-15T01:22:24.684Z,19.91
2022-09-15T01:25:03.289Z,20.02
2022-09-15T01:27:42.600Z,19.99
2022-09-15T01:30:10.834Z,19.88
2022-09-15T01:33:06.759Z,19.86
2022-09-15T01:35:37.452Z,19.77
2022-09-15T01:38:39.856Z,19.78
2022-09-15T01:41:40.594Z,19.71
2022-09-15T01:44:28.015Z,19.71
2022-09-15T01:47:00.514Z,19.59
2022-09-15T01:49:35.529Z,19.41
2022-09-15T01:52:03.793Z,19.47
2022-09-15T01:54:41.684Z,19.63
2022-09-15T01:57:09.743Z,19.64
2022-09-15T01:59:38.045Z,19.48
2022-09-15T02:02:13.289Z,19.62
2022-09-15T02:04:52.941Z,19.59
2022-09-15T02:07:47.558Z,19.66
2022-09-15T02:10:32.819Z,19.61
2022-09-15T02:13:39.400Z,19.45
2022-09-15T02:16:21.220Z,19.44
2022-09-15T02:18:56.814Z,19.41
2022-09-15T02:21:42.275Z,19.20
2022-09-15T02:24:18.687Z,19.27
2022-09-15T02:26:49.536Z,19.43
2022-09-15T02:29:21.470Z,19.46
2022-09-15T02:31:52.570Z,19.42
2022-09-15T02:34:26.032Z,19.50
2022-09-15T02:36:55.170Z,19.46
2022-09-15T02:39:29.171Z,19.65
2022-09-15T02:41:56.970Z,19.44
2022-09-15T02:44:24.786Z,19.69
2022-09-15T02:46:52.463Z,19.54
2022-09-15T02:49:20.292Z,19.70
2022-09-15T02:51:48.349Z,19.70
2022-09-15T02:54:16.188Z,19.54
2022-09-15T02:56:44.682Z,19.49
2022-09-15T02:59:12.538Z,19.49
2022-09-15T03:01:40.813Z,19.54
2022-09-15T03:04:08.781Z,19.60
2022-09-15T03:06:36.658Z,19.74
2022-09-15T03:09:07.549Z,19.79
2022-09-15T03:11:36.329Z,19.76
2022-09-15T03:14:06.597Z,19.57
2022-09-15T03:16:35.590Z,19.49
2022-09-15T03:19:03.935Z,19.43
2022-09-15T03:21:31.961Z,19.40
2022-09-15T03:23:59.684Z,19.45
2022-09-15T03:26:27.490Z,19.32
2022-09-15T03:28:55.541Z,19.37
2022-09-15T03:31:23.290Z,19.27
2022-09-15T03:33:54.714Z,19.04
2022-09-15T03:36:22.729Z,19.17
2022-09-15T03:38:50.942Z,19.18
2022-09-15T03:41:18.978Z,19.17
2022-09-15T03:43:47.062Z,18.98
2022-09-15T03:46:15.211Z,19.06
2022-09-15T03:48:43.217Z,19.09
2022-09-15T03:51:11.863Z,19.16
2022-09-15T03:53:41.743Z,19.12
2022-09-15T03:56:22.102Z,19.24
2022-09-15T03:58:51.271Z,19.17
2022-09-15T04:01:20.230Z,19.17
2022-09-15T04:03:51.073Z,19.09
2022-09-15T04:06:21.961Z,19.07
2022-09-15T04:08:51.184Z,18.76
2022-09-15T04:11:21.320Z,18.68
2022-09-15T04:13:50.906Z,18.72
2022-09-15T04:16:23.211Z,18.60
2022-09-15T04:18:52.778Z,18.33
2022-09-15T04:21:26.094Z,18.61
2022-09-15T04:23:54.724Z,18.57
2022-09-15T04:26:33.070Z,18.32
2022-09-15T04:29:04.504Z,18.60
2022-09-15T04:31:33.930Z,18.64
2022-09-15T04:34:01.748Z,18.63
2022-09-15T04:36:29.780Z,18.70
2022-09-15T04:38:58.315Z,18.55
2022-09-15T04:41:28.157Z,18.69
2022-09-15T04:43:56.705Z,18.54
2022-09-15T04:46:24.530Z,18.75
2022-09-15T04:48:52.455Z,18.91
2022-09-15T04:51:22.191Z,18.77
2022-09-15T04:53:50.598Z,18.92
2022-09-15T04:56:23.360Z,18.90
2022-09-15T04:59:01.092Z,18.85
2022-09-15T05:01:34.108Z,18.93
2022-09-15T05:04:04.048Z,19.02
2022-09-15T05:06:33.092Z,19.01
2022-09-15T05:09:02.918Z,19.08
2022-09-15T05:11:32.940Z,19.08
2022-09-15T05:14:00.995Z,19.14
2022-09-15T05:16:30.116Z,19.30
2022-09-15T05:19:00.124Z,19.30
2022-09-15T05:21:28.059Z,19.40
2022-09-15T05:23:55.832Z,19.63
2022-09-15T05:26:26.746Z,19.82
2022-09-15T05:28:56.007Z,19.89
2022-09-15T05:31:27.303Z,19.85
2022-09-15T05:33:55.418Z,20.06
2022-09-15T05:36:27.437Z,20.15
2022-09-15T05:38:58.970Z,20.16
2022-09-15T05:41:29.036Z,20.20
2022-09-15T05:43:58.163Z,20.19
2022-09-15T05:46:26.925Z,20.26
2022-09-15T05:48:56.719Z,20.29
2022-09-15T05:51:24.987Z,20.75
2022-09-15T05:53:53.161Z,20.72
2022-09-15T05:56:21.264Z,20.75
2022-09-15T05:58:49.931Z,21.01
2022-09-15T06:01:23.171Z,21.13
2022-09-15T06:03:53.089Z,21.31
2022-09-15T06:06:24.624Z,21.37
2022-09-15T06:08:58.145Z,21.69
2022-09-15T06:11:29.285Z,21.75
2022-09-15T06:14:04.071Z,21.95
2022-09-15T06:16:34.892Z,22.00
2022-09-15T06:19:03.634Z,22.16
2022-09-15T06:21:33.153Z,22.52
2022-09-15T06:24:03.605Z,22.91
2022-09-15T06:26:31.589Z,23.20
2022-09-15T06:29:01.247Z,22.67
2022-09-15T06:31:31.718Z,23.04
2022-09-15T06:34:00.631Z,22.86
2022-09-15T06:36:29.832Z,23.04
2022-09-15T06:38:58.538Z,22.94
2022-09-15T06:41:38.144Z,22.96
2022-09-15T06:44:21.671Z,22.80
2022-09-15T06:46:49.733Z,22.80
2022-09-15T06:49:17.823Z,23.13
2022-09-15T06:51:45.748Z,23.59
2022-09-15T06:54:15.996Z,23.59
2022-09-15T06:56:44.451Z,22.92
2022-09-15T06:59:13.096Z,22.89
2022-09-15T07:01:41.685Z,23.01
2022-09-15T07:04:10.027Z,23.32
2022-09-15T07:06:39.227Z,23.66
2022-09-15T07:09:07.249Z,23.51
2022-09-15T07:11:34.973Z,23.64
2022-09-15T07:14:02.582Z,23.36
2022-09-15T07:16:30.456Z,23.24
2022-09-15T07:19:01.326Z,24.48
2022-09-15T07:21:29.425Z,23.87
2022-09-15T07:23:58.012Z,24.04
2022-09-15T07:26:30.483Z,23.69
2022-09-15T07:29:00.981Z,24.20
2022-09-15T07:31:31.797Z,24.44
2022-09-15T07:34:01.051Z,24.83
2022-09-15T07:36:30.022Z,25.34
2022-09-15T07:38:57.913Z,26.58
2022-09-15T07:41:30.898Z,25.71
2022-09-15T07:43:59.974Z,25.49
2022-09-15T07:46:31.225Z,26.11
2022-09-15T07:48:59.113Z,26.64
2022-09-15T07:51:27.094Z,26.67
2022-09-15T07:53:55.046Z,33.01
2022-09-15T07:56:25.820Z,35.38
2022-09-15T07:58:53.870Z,33.62
2022-09-15T08:01:22.586Z,36.58
2022-09-15T08:03:52.541Z,28.67
2022-09-15T08:06:25.800Z,27.67
2022-09-15T08:08:59.249Z,27.26
2022-09-15T08:11:28.908Z,30.40
2022-09-15T08:13:56.746Z,32.61
2022-09-15T08:16:25.132Z,31.62
2022-09-15T08:18:54.513Z,33.90
2022-09-15T08:21:23.700Z,31.08
2022-09-15T08:23:58.190Z,32.68
2022-09-15T08:26:27.335Z,32.65
2022-09-15T08:28:56.159Z,31.48
2022-09-15T08:31:25.140Z,31.81
2022-09-15T08:33:55.244Z,35.33
2022-09-15T08:36:27.569Z,34.07
2022-09-15T08:38:56.129Z,33.06
2022-09-15T08:41:34.580Z,32.83
2022-09-15T08:44:30.310Z,32.29
2022-09-15T08:47:15.741Z,36.62
2022-09-15T08:49:51.523Z,32.26
2022-09-15T08:52:35.291Z,40.64
2022-09-15T08:55:15.819Z,43.91
2022-09-15T08:57:45.108Z,43.02
2022-09-15T09:00:15.461Z,36.70
2022-09-15T09:02:55.285Z,38.53
2022-09-15T09:05:41.661Z,36.78
2022-09-15T09:08:21.388Z,40.17
2022-09-15T09:10:53.359Z,40.32
2022-09-15T09:13:34.657Z,41.21
2022-09-15T09:16:09.736Z,42.49
2022-09-15T09:19:28.957Z,38.81
2022-09-15T09:22:09.733Z,32.50
2022-09-15T09:24:44.749Z,31.22
2022-09-15T09:27:22.268Z,32.00
2022-09-15T09:29:57.803Z,35.82
2022-09-15T09:32:32.401Z,31.24
2022-09-15T09:35:09.284Z,31.44
2022-09-15T09:37:37.063Z,31.75
2022-09-15T09:40:05.947Z,32.22
2022-09-15T09:42:38.499Z,30.85
2022-09-15T09:45:07.797Z,31.84
2022-09-15T09:47:36.572Z,30.85
2022-09-15T09:50:35.538Z,29.53
2022-09-15T09:53:33.693Z,31.28
2022-09-15T09:56:26.141Z,31.31
2022-09-15T09:58:55.188Z,30.55
2022-09-15T10:01:26.076Z,30.35
2022-09-15T10:04:18.273Z,30.55
2022-09-15T10:06:46.658Z,30.51
2022-09-15T10:09:19.293Z,31.01
2022-09-15T10:11:54.645Z,31.00
2022-09-15T10:14:25.405Z,32.16
2022-09-15T10:17:18.628Z,32.65
2022-09-15T10:19:57.814Z,31.39
2022-09-15T10:22:39.114Z,32.34
2022-09-15T10:25:22.127Z,33.89
2022-09-15T10:28:11.749Z,32.60
2022-09-15T10:30:57.527Z,32.13
2022-09-15T10:33:31.842Z,32.31
2022-09-15T10:36:04.377Z,32.26
2022-09-15T10:38:43.053Z,33.86
2022-09-15T10:41:22.542Z,32.15
2022-09-15T10:44:17.905Z,31.43
2022-09-15T10:47:01.833Z,30.56
2022-09-15T10:49:48.564Z,31.02
2022-09-15T10:52:21.800Z,34.26
2022-09-15T10:55:51.651Z,33.87
2022-09-15T10:58:20.465Z,32.08
2022-09-15T11:01:34.480Z,34.23
2022-09-15T11:04:17.378Z,32.87
2022-09-15T11:06:56.050Z,29.90
2022-09-15T11:09:25.991Z,29.00
2022-09-15T11:12:07.294Z,28.96
2022-09-15T11:14:54.822Z,28.19
2022-09-15T11:17:34.530Z,27.75
2022-09-15T11:20:21.909Z,27.61
2022-09-15T11:23:19.144Z,27.20
2022-09-15T11:25:57.003Z,27.16
2022-09-15T11:28:33.087Z,27.24
2022-09-15T11:31:22.150Z,27.48
2022-09-15T11:34:15.430Z,27.14
2022-09-15T11:36:56.636Z,27.15
2022-09-15T11:39:30.650Z,26.90
2022-09-15T11:42:07.740Z,27.51
2022-09-15T11:44:42.099Z,27.63
2022-09-15T11:47:22.931Z,28.78
2022-09-15T11:49:59.673Z,29.21
2022-09-15T11:52:51.627Z,30.28
2022-09-15T11:55:28.432Z,30.37
2022-09-15T11:58:16.377Z,29.76
2022-09-15T12:00:55.881Z,28.45
2022-09-15T12:03:36.011Z,27.57
2022-09-15T12:06:08.121Z,26.79
2022-09-15T12:08:50.908Z,26.92
2022-09-15T12:11:23.153Z,26.31
2022-09-15T12:13:52.550Z,26.19
2022-09-15T12:16:21.325Z,25.91
2022-09-15T12:19:07.109Z,25.82
2022-09-15T12:21:41.648Z,25.26
2022-09-15T12:24:09.663Z,24.97
2022-09-15T12:26:38.416Z,24.88
2022-09-15T12:29:26.073Z,24.13
2022-09-15T12:32:19.542Z,23.87
2022-09-15T12:34:59.774Z,23.57
2022-09-15T12:37:46.848Z,23.79
2022-09-15T12:40:30.350Z,23.56
2022-09-15T12:42:58.344Z,23.87
2022-09-15T12:45:39.031Z,23.69
2022-09-15T12:48:20.269Z,23.21
2022-09-15T12:50:58.437Z,22.50
2022-09-15T12:56:11.701Z,21.51
2022-09-15T12:58:46.229Z,21.33
2022-09-15T13:01:27.008Z,21.22
2022-09-15T13:04:24.890Z,20.95
2022-09-15T13:07:18.536Z,21.49
2022-09-15T13:10:09.391Z,22.36
2022-09-15T13:12:43.705Z,22.38
2022-09-15T13:15:16.338Z,21.77
2022-09-15T13:17:47.277Z,22.22
2022-09-15T13:20:21.865Z,22.10
2022-09-15T13:22:53.020Z,22.14
2022-09-15T13:25:27.161Z,22.16
2022-09-15T13:28:00.058Z,21.71
2022-09-15T13:30:40.165Z,21.58
2022-09-15T13:40:27.360Z,20.66
2022-09-15T13:43:08.969Z,20.41
2022-09-15T13:45:56.228Z,20.75
2022-09-15T13:48:40.326Z,20.39
2022-09-15T13:51:31.379Z,20.76
2022-09-15T13:54:17.143Z,20.80
2022-09-15T13:56:47.427Z,20.41
2022-09-15T13:59:18.955Z,20.56
2022-09-15T14:01:46.961Z,20.72
2022-09-15T14:04:24.464Z,20.94
2022-09-15T14:06:58.533Z,20.41
2022-09-15T14:09:35.286Z,19.86
2022-09-15T14:12:09.259Z,19.77
2022-09-15T14:14:42.462Z,19.67
2022-09-15T14:17:28.773Z,19.93
2022-09-15T14:19:59.856Z,20.19
2022-09-15T14:22:32.682Z,20.34
2022-09-15T14:25:06.855Z,20.44
2022-09-15T14:27:37.143Z,20.46
2022-09-15T14:30:08.942Z,20.53
2022-09-15T14:32:45.065Z,20.55
